sensor_id;sensor_type;location;lat;lon;timestamp;P1;durP1;ratioP1;P2;durP2;ratioP2
24761;SDS011;12865;51.934;10.330;2022-11-13T00:00:17;3.00;;;1.73;;
24761;SDS011;12865;51.934;10.330;2022-11-13T00:03:02;3.17;;;1.73;;
24761;SDS011;12865;51.934;10.330;2022-11-13T00:05:56;3.45;;;1.83;;
24761;SDS011;12865;51.934;10.330;2022-11-13T00:08:44;1.77;;;1.65;;
24761;SDS011;12865;51.934;10.330;2022-11-13T00:11:31;1.92;;;1.48;;
24761;SDS011;12865;51.934;10.330;2022-11-13T00:14:16;1.48;;;1.38;;
24761;SDS011;12865;51.934;10.330;2022-11-13T00:17:02;2.35;;;1.73;;
24761;SDS011;12865;51.934;10.330;2022-11-13T00:19:48;1.95;;;1.52;;
24761;SDS011;12865;51.934;10.330;2022-11-13T00:22:34;1.95;;;1.50;;
24761;SDS011;12865;51.934;10.330;2022-11-13T00:25:19;2.20;;;1.40;;
24761;SDS011;12865;51.934;10.330;2022-11-13T00:28:05;1.70;;;1.60;;
24761;SDS011;12865;51.934;10.330;2022-11-13T00:30:56;1.90;;;1.70;;
24761;SDS011;12865;51.934;10.330;2022-11-13T00:33:43;1.60;;;1.50;;
24761;SDS011;12865;51.934;10.330;2022-11-13T00:36:28;1.92;;;1.73;;
24761;SDS011;12865;51.934;10.330;2022-11-13T00:39:14;1.55;;;1.45;;
24761;SDS011;12865;51.934;10.330;2022-11-13T00:42:00;1.50;;;1.40;;
24761;SDS011;12865;51.934;10.330;2022-11-13T00:44:45;1.85;;;1.50;;
24761;SDS011;12865;51.934;10.330;2022-11-13T00:47:31;2.05;;;1.60;;
24761;SDS011;12865;51.934;10.330;2022-11-13T00:50:17;1.85;;;1.63;;
24761;SDS011;12865;51.934;10.330;2022-11-13T00:53:02;1.58;;;1.48;;
24761;SDS011;12865;51.934;10.330;2022-11-13T00:55:49;1.65;;;1.55;;
24761;SDS011;12865;51.934;10.330;2022-11-13T00:58:35;3.25;;;1.50;;
24761;SDS011;12865;51.934;10.330;2022-11-13T01:01:21;2.67;;;1.50;;
24761;SDS011;12865;51.934;10.330;2022-11-13T01:04:06;1.60;;;1.50;;
24761;SDS011;12865;51.934;10.330;2022-11-13T01:06:52;2.72;;;1.67;;
24761;SDS011;12865;51.934;10.330;2022-11-13T01:09:38;1.40;;;1.30;;
24761;SDS011;12865;51.934;10.330;2022-11-13T01:12:23;1.85;;;1.60;;
24761;SDS011;12865;51.934;10.330;2022-11-13T01:15:09;1.48;;;1.38;;
24761;SDS011;12865;51.934;10.330;2022-11-13T01:17:55;2.03;;;1.50;;
24761;SDS011;12865;51.934;10.330;2022-11-13T01:20:41;3.00;;;1.80;;
24761;SDS011;12865;51.934;10.330;2022-11-13T01:23:26;2.60;;;1.42;;
24761;SDS011;12865;51.934;10.330;2022-11-13T01:26:16;1.50;;;1.40;;
24761;SDS011;12865;51.934;10.330;2022-11-13T01:29:08;1.52;;;1.40;;
24761;SDS011;12865;51.934;10.330;2022-11-13T01:31:54;1.77;;;1.50;;
24761;SDS011;12865;51.934;10.330;2022-11-13T01:34:40;1.58;;;1.25;;
24761;SDS011;12865;51.934;10.330;2022-11-13T01:37:26;1.55;;;1.45;;
24761;SDS011;12865;51.934;10.330;2022-11-13T01:40:12;1.50;;;1.40;;
24761;SDS011;12865;51.934;10.330;2022-11-13T01:43:08;1.30;;;1.20;;
24761;SDS011;12865;51.934;10.330;2022-11-13T01:46:10;1.60;;;1.50;;
24761;SDS011;12865;51.934;10.330;2022-11-13T01:51:57;2.38;;;1.50;;
24761;SDS011;12865;51.934;10.330;2022-11-13T01:57:36;3.72;;;2.90;;
24761;SDS011;12865;51.934;10.330;2022-11-13T02:00:23;2.55;;;1.80;;
24761;SDS011;12865;51.934;10.330;2022-11-13T02:03:08;2.85;;;1.45;;
24761;SDS011;12865;51.934;10.330;2022-11-13T02:05:55;1.73;;;1.30;;
24761;SDS011;12865;51.934;10.330;2022-11-13T02:08:40;1.52;;;1.33;;
24761;SDS011;12865;51.934;10.330;2022-11-13T02:11:28;1.35;;;1.23;;
24761;SDS011;12865;51.934;10.330;2022-11-13T02:14:14;1.25;;;1.13;;
24761;SDS011;12865;51.934;10.330;2022-11-13T02:17:03;1.35;;;1.25;;
24761;SDS011;12865;51.934;10.330;2022-11-13T02:19:52;1.50;;;1.40;;
24761;SDS011;12865;51.934;10.330;2022-11-13T02:25:30;3.25;;;2.40;;
24761;SDS011;12865;51.934;10.330;2022-11-13T02:28:17;3.58;;;2.22;;
24761;SDS011;12865;51.934;10.330;2022-11-13T02:31:10;2.95;;;2.28;;
24761;SDS011;12865;51.934;10.330;2022-11-13T02:33:57;4.55;;;2.60;;
24761;SDS011;12865;51.934;10.330;2022-11-13T02:36:45;4.80;;;2.70;;
24761;SDS011;12865;51.934;10.330;2022-11-13T02:39:31;6.25;;;2.65;;
24761;SDS011;12865;51.934;10.330;2022-11-13T02:42:16;5.65;;;2.95;;
24761;SDS011;12865;51.934;10.330;2022-11-13T02:45:02;6.63;;;3.15;;
24761;SDS011;12865;51.934;10.330;2022-11-13T02:47:49;4.28;;;2.50;;
24761;SDS011;12865;51.934;10.330;2022-11-13T02:50:35;4.47;;;1.90;;
24761;SDS011;12865;51.934;10.330;2022-11-13T02:53:21;4.05;;;1.73;;
24761;SDS011;12865;51.934;10.330;2022-11-13T02:56:07;1.67;;;1.30;;
24761;SDS011;12865;51.934;10.330;2022-11-13T02:58:53;1.10;;;1.00;;
24761;SDS011;12865;51.934;10.330;2022-11-13T03:01:39;1.30;;;1.20;;
24761;SDS011;12865;51.934;10.330;2022-11-13T03:04:24;1.30;;;1.20;;
24761;SDS011;12865;51.934;10.330;2022-11-13T03:07:10;2.22;;;1.20;;
24761;SDS011;12865;51.934;10.330;2022-11-13T03:09:57;1.23;;;1.10;;
24761;SDS011;12865;51.934;10.330;2022-11-13T03:12:43;0.82;;;0.80;;
24761;SDS011;12865;51.934;10.330;2022-11-13T03:15:28;1.00;;;0.90;;
24761;SDS011;12865;51.934;10.330;2022-11-13T03:18:14;1.33;;;1.15;;
24761;SDS011;12865;51.934;10.330;2022-11-13T03:21:04;1.85;;;1.08;;
24761;SDS011;12865;51.934;10.330;2022-11-13T03:23:53;0.85;;;0.80;;
24761;SDS011;12865;51.934;10.330;2022-11-13T03:26:39;1.33;;;1.02;;
24761;SDS011;12865;51.934;10.330;2022-11-13T03:29:24;1.80;;;1.30;;
24761;SDS011;12865;51.934;10.330;2022-11-13T03:32:10;1.98;;;1.50;;
24761;SDS011;12865;51.934;10.330;2022-11-13T03:34:56;4.30;;;2.17;;
24761;SDS011;12865;51.934;10.330;2022-11-13T03:37:41;4.88;;;2.78;;
24761;SDS011;12865;51.934;10.330;2022-11-13T03:40:27;2.22;;;1.70;;
24761;SDS011;12865;51.934;10.330;2022-11-13T03:43:13;1.10;;;1.00;;
24761;SDS011;12865;51.934;10.330;2022-11-13T03:45:59;1.25;;;0.95;;
24761;SDS011;12865;51.934;10.330;2022-11-13T03:48:45;1.27;;;0.90;;
24761;SDS011;12865;51.934;10.330;2022-11-13T03:51:30;1.25;;;1.00;;
24761;SDS011;12865;51.934;10.330;2022-11-13T03:54:16;1.10;;;0.80;;
24761;SDS011;12865;51.934;10.330;2022-11-13T03:57:02;1.00;;;1.00;;
24761;SDS011;12865;51.934;10.330;2022-11-13T03:59:47;1.08;;;0.98;;
24761;SDS011;12865;51.934;10.330;2022-11-13T04:02:33;1.13;;;1.02;;
24761;SDS011;12865;51.934;10.330;2022-11-13T04:05:19;0.95;;;0.90;;
24761;SDS011;12865;51.934;10.330;2022-11-13T04:08:04;1.75;;;1.60;;
24761;SDS011;12865;51.934;10.330;2022-11-13T04:10:50;1.95;;;1.65;;
24761;SDS011;12865;51.934;10.330;2022-11-13T04:13:36;3.80;;;1.70;;
24761;SDS011;12865;51.934;10.330;2022-11-13T04:16:22;3.90;;;2.40;;
24761;SDS011;12865;51.934;10.330;2022-11-13T04:19:08;3.30;;;2.83;;
24761;SDS011;12865;51.934;10.330;2022-11-13T04:21:53;5.78;;;2.80;;
24761;SDS011;12865;51.934;10.330;2022-11-13T04:24:39;5.47;;;2.92;;
24761;SDS011;12865;51.934;10.330;2022-11-13T04:27:25;2.33;;;2.03;;
24761;SDS011;12865;51.934;10.330;2022-11-13T04:30:10;4.55;;;2.30;;
24761;SDS011;12865;51.934;10.330;2022-11-13T04:32:56;2.75;;;1.90;;
24761;SDS011;12865;51.934;10.330;2022-11-13T04:35:42;1.80;;;1.63;;
24761;SDS011;12865;51.934;10.330;2022-11-13T04:38:30;2.22;;;1.50;;
24761;SDS011;12865;51.934;10.330;2022-11-13T04:41:15;3.58;;;0.93;;
24761;SDS011;12865;51.934;10.330;2022-11-13T04:44:20;1.05;;;0.90;;
24761;SDS011;12865;51.934;10.330;2022-11-13T04:47:05;2.53;;;1.23;;
24761;SDS011;12865;51.934;10.330;2022-11-13T04:49:52;2.03;;;1.33;;
24761;SDS011;12865;51.934;10.330;2022-11-13T04:52:38;2.90;;;1.95;;
24761;SDS011;12865;51.934;10.330;2022-11-13T04:55:23;2.50;;;2.08;;
24761;SDS011;12865;51.934;10.330;2022-11-13T04:58:09;3.22;;;1.33;;
24761;SDS011;12865;51.934;10.330;2022-11-13T05:00:55;1.55;;;1.27;;
24761;SDS011;12865;51.934;10.330;2022-11-13T05:03:40;1.50;;;1.40;;
24761;SDS011;12865;51.934;10.330;2022-11-13T05:06:26;4.80;;;1.75;;
24761;SDS011;12865;51.934;10.330;2022-11-13T05:09:12;3.03;;;1.35;;
24761;SDS011;12865;51.934;10.330;2022-11-13T05:11:58;2.85;;;1.40;;
24761;SDS011;12865;51.934;10.330;2022-11-13T05:14:43;1.85;;;1.40;;
24761;SDS011;12865;51.934;10.330;2022-11-13T05:17:29;1.77;;;1.02;;
24761;SDS011;12865;51.934;10.330;2022-11-13T05:20:15;1.38;;;1.00;;
24761;SDS011;12865;51.934;10.330;2022-11-13T05:23:01;2.05;;;0.73;;
24761;SDS011;12865;51.934;10.330;2022-11-13T05:25:46;0.40;;;0.40;;
24761;SDS011;12865;51.934;10.330;2022-11-13T05:28:32;1.02;;;0.77;;
24761;SDS011;12865;51.934;10.330;2022-11-13T05:31:18;0.98;;;0.85;;
24761;SDS011;12865;51.934;10.330;2022-11-13T05:34:04;1.15;;;0.73;;
24761;SDS011;12865;51.934;10.330;2022-11-13T05:36:50;0.80;;;0.80;;
24761;SDS011;12865;51.934;10.330;2022-11-13T05:39:36;0.80;;;0.70;;
24761;SDS011;12865;51.934;10.330;2022-11-13T05:42:22;0.68;;;0.50;;
24761;SDS011;12865;51.934;10.330;2022-11-13T05:45:07;1.02;;;0.50;;
24761;SDS011;12865;51.934;10.330;2022-11-13T05:47:53;0.57;;;0.57;;
24761;SDS011;12865;51.934;10.330;2022-11-13T05:50:39;0.70;;;0.60;;
24761;SDS011;12865;51.934;10.330;2022-11-13T05:53:25;0.70;;;0.70;;
24761;SDS011;12865;51.934;10.330;2022-11-13T05:56:18;0.60;;;0.60;;
24761;SDS011;12865;51.934;10.330;2022-11-13T05:59:08;0.77;;;0.70;;
24761;SDS011;12865;51.934;10.330;2022-11-13T06:01:54;0.60;;;0.60;;
24761;SDS011;12865;51.934;10.330;2022-11-13T06:04:39;0.85;;;0.70;;
24761;SDS011;12865;51.934;10.330;2022-11-13T06:07:25;1.33;;;0.70;;
24761;SDS011;12865;51.934;10.330;2022-11-13T06:10:11;0.35;;;0.35;;
24761;SDS011;12865;51.934;10.330;2022-11-13T06:12:57;0.55;;;0.50;;
24761;SDS011;12865;51.934;10.330;2022-11-13T06:15:43;0.68;;;0.68;;
24761;SDS011;12865;51.934;10.330;2022-11-13T06:18:28;1.23;;;0.70;;
24761;SDS011;12865;51.934;10.330;2022-11-13T06:21:18;1.20;;;1.10;;
24761;SDS011;12865;51.934;10.330;2022-11-13T06:24:06;7.95;;;3.70;;
24761;SDS011;12865;51.934;10.330;2022-11-13T06:26:54;5.85;;;3.42;;
24761;SDS011;12865;51.934;10.330;2022-11-13T06:29:40;5.47;;;2.42;;
24761;SDS011;12865;51.934;10.330;2022-11-13T06:32:26;3.00;;;2.38;;
24761;SDS011;12865;51.934;10.330;2022-11-13T06:35:11;4.15;;;2.60;;
24761;SDS011;12865;51.934;10.330;2022-11-13T06:37:57;5.15;;;3.95;;
24761;SDS011;12865;51.934;10.330;2022-11-13T06:40:43;4.68;;;3.00;;
24761;SDS011;12865;51.934;10.330;2022-11-13T06:43:29;4.68;;;3.10;;
24761;SDS011;12865;51.934;10.330;2022-11-13T06:46:20;4.35;;;2.85;;
24761;SDS011;12865;51.934;10.330;2022-11-13T06:49:07;4.65;;;3.55;;
24761;SDS011;12865;51.934;10.330;2022-11-13T06:51:53;5.00;;;2.90;;
24761;SDS011;12865;51.934;10.330;2022-11-13T06:54:38;5.15;;;3.42;;
24761;SDS011;12865;51.934;10.330;2022-11-13T06:57:24;5.70;;;3.40;;
24761;SDS011;12865;51.934;10.330;2022-11-13T07:00:10;4.90;;;2.90;;
24761;SDS011;12865;51.934;10.330;2022-11-13T07:02:56;4.30;;;2.60;;
24761;SDS011;12865;51.934;10.330;2022-11-13T07:05:42;3.45;;;2.08;;
24761;SDS011;12865;51.934;10.330;2022-11-13T07:08:28;5.47;;;2.38;;
24761;SDS011;12865;51.934;10.330;2022-11-13T07:11:16;2.65;;;2.28;;
24761;SDS011;12865;51.934;10.330;2022-11-13T07:14:03;2.95;;;2.42;;
24761;SDS011;12865;51.934;10.330;2022-11-13T07:16:49;5.25;;;3.00;;
24761;SDS011;12865;51.934;10.330;2022-11-13T07:19:34;4.82;;;3.60;;
24761;SDS011;12865;51.934;10.330;2022-11-13T07:22:20;5.47;;;4.20;;
24761;SDS011;12865;51.934;10.330;2022-11-13T07:25:06;11.02;;;7.85;;
24761;SDS011;12865;51.934;10.330;2022-11-13T07:27:52;12.15;;;7.55;;
24761;SDS011;12865;51.934;10.330;2022-11-13T07:30:38;13.90;;;9.48;;
24761;SDS011;12865;51.934;10.330;2022-11-13T07:33:24;47.22;;;27.50;;
24761;SDS011;12865;51.934;10.330;2022-11-13T07:36:09;34.95;;;21.83;;
24761;SDS011;12865;51.934;10.330;2022-11-13T07:38:55;15.13;;;10.57;;
24761;SDS011;12865;51.934;10.330;2022-11-13T07:41:41;13.23;;;8.02;;
24761;SDS011;12865;51.934;10.330;2022-11-13T07:44:26;10.50;;;6.88;;
24761;SDS011;12865;51.934;10.330;2022-11-13T07:47:12;7.55;;;5.93;;
24761;SDS011;12865;51.934;10.330;2022-11-13T07:49:58;7.05;;;4.82;;
24761;SDS011;12865;51.934;10.330;2022-11-13T07:52:43;8.50;;;5.68;;
24761;SDS011;12865;51.934;10.330;2022-11-13T07:55:29;9.68;;;6.50;;
24761;SDS011;12865;51.934;10.330;2022-11-13T07:58:15;7.38;;;5.18;;
24761;SDS011;12865;51.934;10.330;2022-11-13T08:01:02;7.55;;;5.75;;
24761;SDS011;12865;51.934;10.330;2022-11-13T08:03:48;7.25;;;5.40;;
24761;SDS011;12865;51.934;10.330;2022-11-13T08:06:37;7.18;;;4.65;;
24761;SDS011;12865;51.934;10.330;2022-11-13T08:09:23;7.60;;;4.38;;
24761;SDS011;12865;51.934;10.330;2022-11-13T08:12:09;5.72;;;3.67;;
24761;SDS011;12865;51.934;10.330;2022-11-13T08:14:54;7.53;;;3.95;;
24761;SDS011;12865;51.934;10.330;2022-11-13T08:17:40;7.78;;;4.18;;
24761;SDS011;12865;51.934;10.330;2022-11-13T08:20:26;5.22;;;4.18;;
24761;SDS011;12865;51.934;10.330;2022-11-13T08:23:13;4.57;;;3.63;;
24761;SDS011;12865;51.934;10.330;2022-11-13T08:26:03;12.63;;;8.70;;
24761;SDS011;12865;51.934;10.330;2022-11-13T08:28:50;13.27;;;8.48;;
24761;SDS011;12865;51.934;10.330;2022-11-13T08:31:36;10.85;;;7.53;;
24761;SDS011;12865;51.934;10.330;2022-11-13T08:34:21;7.93;;;4.20;;
24761;SDS011;12865;51.934;10.330;2022-11-13T08:37:07;6.18;;;4.13;;
24761;SDS011;12865;51.934;10.330;2022-11-13T08:39:53;6.78;;;3.42;;
24761;SDS011;12865;51.934;10.330;2022-11-13T08:42:39;7.03;;;3.70;;
24761;SDS011;12865;51.934;10.330;2022-11-13T08:45:25;9.95;;;4.25;;
24761;SDS011;12865;51.934;10.330;2022-11-13T08:48:11;5.60;;;2.97;;
24761;SDS011;12865;51.934;10.330;2022-11-13T08:50:57;3.05;;;2.67;;
24761;SDS011;12865;51.934;10.330;2022-11-13T08:53:43;4.20;;;3.78;;
24761;SDS011;12865;51.934;10.330;2022-11-13T08:56:28;7.80;;;4.80;;
24761;SDS011;12865;51.934;10.330;2022-11-13T08:59:14;6.88;;;5.03;;
24761;SDS011;12865;51.934;10.330;2022-11-13T09:02:00;10.10;;;5.55;;
24761;SDS011;12865;51.934;10.330;2022-11-13T09:04:45;7.28;;;5.95;;
24761;SDS011;12865;51.934;10.330;2022-11-13T09:07:31;6.72;;;5.32;;
24761;SDS011;12865;51.934;10.330;2022-11-13T09:10:17;8.13;;;5.95;;
24761;SDS011;12865;51.934;10.330;2022-11-13T09:13:03;8.63;;;5.63;;
24761;SDS011;12865;51.934;10.330;2022-11-13T09:15:50;6.30;;;5.30;;
24761;SDS011;12865;51.934;10.330;2022-11-13T09:18:35;5.82;;;5.22;;
24761;SDS011;12865;51.934;10.330;2022-11-13T09:21:21;7.57;;;5.15;;
24761;SDS011;12865;51.934;10.330;2022-11-13T09:24:07;6.45;;;5.30;;
24761;SDS011;12865;51.934;10.330;2022-11-13T09:26:53;6.28;;;5.03;;
24761;SDS011;12865;51.934;10.330;2022-11-13T09:29:38;4.80;;;4.38;;
24761;SDS011;12865;51.934;10.330;2022-11-13T09:32:24;5.47;;;4.47;;
24761;SDS011;12865;51.934;10.330;2022-11-13T09:35:09;6.72;;;4.57;;
24761;SDS011;12865;51.934;10.330;2022-11-13T09:37:55;6.35;;;4.47;;
24761;SDS011;12865;51.934;10.330;2022-11-13T09:40:58;6.45;;;4.45;;
24761;SDS011;12865;51.934;10.330;2022-11-13T09:43:52;7.25;;;5.93;;
24761;SDS011;12865;51.934;10.330;2022-11-13T09:46:50;8.05;;;6.10;;
24761;SDS011;12865;51.934;10.330;2022-11-13T09:49:41;6.80;;;6.13;;
24761;SDS011;12865;51.934;10.330;2022-11-13T09:52:38;8.02;;;5.82;;
24761;SDS011;12865;51.934;10.330;2022-11-13T09:55:29;5.95;;;5.32;;
24761;SDS011;12865;51.934;10.330;2022-11-13T10:13:41;4.90;;;4.32;;
24761;SDS011;12865;51.934;10.330;2022-11-13T10:16:31;5.75;;;4.75;;
24761;SDS011;12865;51.934;10.330;2022-11-13T10:19:25;5.18;;;4.68;;
24761;SDS011;12865;51.934;10.330;2022-11-13T10:22:17;5.65;;;5.15;;
24761;SDS011;12865;51.934;10.330;2022-11-13T10:25:14;7.05;;;5.32;;
24761;SDS011;12865;51.934;10.330;2022-11-13T10:28:08;6.53;;;5.05;;
24761;SDS011;12865;51.934;10.330;2022-11-13T10:30:58;5.32;;;4.82;;
24761;SDS011;12865;51.934;10.330;2022-11-13T10:33:44;6.65;;;5.95;;
24761;SDS011;12865;51.934;10.330;2022-11-13T10:36:35;7.10;;;6.40;;
24761;SDS011;12865;51.934;10.330;2022-11-13T10:39:28;8.00;;;6.80;;
24761;SDS011;12865;51.934;10.330;2022-11-13T10:42:21;7.43;;;6.72;;
24761;SDS011;12865;51.934;10.330;2022-11-13T10:45:13;7.63;;;6.63;;
24761;SDS011;12865;51.934;10.330;2022-11-13T10:48:03;7.75;;;6.95;;
24761;SDS011;12865;51.934;10.330;2022-11-13T10:50:52;7.50;;;6.78;;
24761;SDS011;12865;51.934;10.330;2022-11-13T10:53:49;8.88;;;7.97;;
24761;SDS011;12865;51.934;10.330;2022-11-13T10:56:36;8.95;;;8.05;;
24761;SDS011;12865;51.934;10.330;2022-11-13T10:59:21;9.43;;;8.40;;
24761;SDS011;12865;51.934;10.330;2022-11-13T11:05:03;14.23;;;9.13;;
24761;SDS011;12865;51.934;10.330;2022-11-13T11:07:54;9.05;;;8.25;;
24761;SDS011;12865;51.934;10.330;2022-11-13T11:10:41;9.93;;;8.02;;
24761;SDS011;12865;51.934;10.330;2022-11-13T11:13:47;9.15;;;8.25;;
24761;SDS011;12865;51.934;10.330;2022-11-13T11:16:33;7.78;;;6.97;;
24761;SDS011;12865;51.934;10.330;2022-11-13T11:19:21;8.10;;;7.35;;
24761;SDS011;12865;51.934;10.330;2022-11-13T11:22:17;10.05;;;8.00;;
24761;SDS011;12865;51.934;10.330;2022-11-13T11:25:18;10.50;;;9.07;;
24761;SDS011;12865;51.934;10.330;2022-11-13T11:28:19;9.77;;;8.77;;
24761;SDS011;12865;51.934;10.330;2022-11-13T11:34:30;13.57;;;10.60;;
24761;SDS011;12865;51.934;10.330;2022-11-13T11:37:27;12.00;;;10.80;;
24761;SDS011;12865;51.934;10.330;2022-11-13T11:40:26;12.60;;;11.30;;
24761;SDS011;12865;51.934;10.330;2022-11-13T11:46:22;12.45;;;10.60;;
24761;SDS011;12865;51.934;10.330;2022-11-13T11:49:08;12.68;;;11.38;;
24761;SDS011;12865;51.934;10.330;2022-11-13T12:00:39;13.93;;;12.43;;
24761;SDS011;12865;51.934;10.330;2022-11-13T12:06:54;15.45;;;13.52;;
24761;SDS011;12865;51.934;10.330;2022-11-13T12:12:45;16.73;;;14.85;;
24761;SDS011;12865;51.934;10.330;2022-11-13T12:22:13;19.25;;;14.85;;
24761;SDS011;12865;51.934;10.330;2022-11-13T12:25:07;19.17;;;15.88;;
24761;SDS011;12865;51.934;10.330;2022-11-13T12:36:41;18.50;;;16.60;;
24761;SDS011;12865;51.934;10.330;2022-11-13T12:39:34;20.30;;;17.52;;
24761;SDS011;12865;51.934;10.330;2022-11-13T12:50:59;22.58;;;18.58;;
24761;SDS011;12865;51.934;10.330;2022-11-13T12:53:52;26.58;;;21.13;;
24761;SDS011;12865;51.934;10.330;2022-11-13T12:56:39;26.40;;;21.77;;
24761;SDS011;12865;51.934;10.330;2022-11-13T13:05:27;38.30;;;31.23;;
24761;SDS011;12865;51.934;10.330;2022-11-13T13:17:22;29.88;;;22.88;;
24761;SDS011;12865;51.934;10.330;2022-11-13T13:22:57;28.25;;;22.85;;
24761;SDS011;12865;51.934;10.330;2022-11-13T13:25:44;28.90;;;23.15;;
24761;SDS011;12865;51.934;10.330;2022-11-13T13:28:30;30.83;;;23.52;;
24761;SDS011;12865;51.934;10.330;2022-11-13T13:46:59;25.70;;;20.08;;
24761;SDS011;12865;51.934;10.330;2022-11-13T13:49:47;25.20;;;20.08;;
24761;SDS011;12865;51.934;10.330;2022-11-13T13:52:35;24.88;;;19.02;;
24761;SDS011;12865;51.934;10.330;2022-11-13T13:55:25;24.17;;;18.92;;
24761;SDS011;12865;51.934;10.330;2022-11-13T13:58:24;25.27;;;18.77;;
24761;SDS011;12865;51.934;10.330;2022-11-13T14:01:14;24.15;;;18.15;;
24761;SDS011;12865;51.934;10.330;2022-11-13T14:04:12;25.08;;;18.33;;
24761;SDS011;12865;51.934;10.330;2022-11-13T14:07:02;27.25;;;19.08;;
24761;SDS011;12865;51.934;10.330;2022-11-13T14:09:48;24.55;;;17.67;;
24761;SDS011;12865;51.934;10.330;2022-11-13T14:12:34;23.50;;;18.15;;
24761;SDS011;12865;51.934;10.330;2022-11-13T14:15:21;25.45;;;19.15;;
24761;SDS011;12865;51.934;10.330;2022-11-13T14:18:13;25.50;;;19.48;;
24761;SDS011;12865;51.934;10.330;2022-11-13T14:21:10;24.42;;;17.77;;
24761;SDS011;12865;51.934;10.330;2022-11-13T14:24:02;26.98;;;20.17;;
24761;SDS011;12865;51.934;10.330;2022-11-13T14:26:50;27.58;;;20.60;;
24761;SDS011;12865;51.934;10.330;2022-11-13T14:29:38;25.83;;;20.67;;
24761;SDS011;12865;51.934;10.330;2022-11-13T14:32:33;27.10;;;20.98;;
24761;SDS011;12865;51.934;10.330;2022-11-13T14:35:24;28.50;;;20.58;;
24761;SDS011;12865;51.934;10.330;2022-11-13T14:38:18;27.33;;;20.90;;
24761;SDS011;12865;51.934;10.330;2022-11-13T14:44:25;29.88;;;19.48;;
24761;SDS011;12865;51.934;10.330;2022-11-13T14:47:20;31.23;;;20.85;;
24761;SDS011;12865;51.934;10.330;2022-11-13T14:50:22;29.65;;;19.40;;
24761;SDS011;12865;51.934;10.330;2022-11-13T14:53:09;32.92;;;21.83;;
24761;SDS011;12865;51.934;10.330;2022-11-13T14:56:02;35.95;;;20.60;;
24761;SDS011;12865;51.934;10.330;2022-11-13T14:58:53;33.40;;;21.27;;
24761;SDS011;12865;51.934;10.330;2022-11-13T15:01:39;55.63;;;44.05;;
24761;SDS011;12865;51.934;10.330;2022-11-13T15:04:25;32.28;;;20.40;;
24761;SDS011;12865;51.934;10.330;2022-11-13T15:07:22;32.15;;;19.73;;
24761;SDS011;12865;51.934;10.330;2022-11-13T15:10:11;28.70;;;19.58;;
24761;SDS011;12865;51.934;10.330;2022-11-13T15:13:00;28.88;;;18.70;;
24761;SDS011;12865;51.934;10.330;2022-11-13T15:15:45;31.08;;;19.35;;
24761;SDS011;12865;51.934;10.330;2022-11-13T15:18:31;28.48;;;19.85;;
24761;SDS011;12865;51.934;10.330;2022-11-13T15:21:17;31.10;;;20.00;;
24761;SDS011;12865;51.934;10.330;2022-11-13T15:24:03;28.48;;;18.00;;
24761;SDS011;12865;51.934;10.330;2022-11-13T15:26:50;26.63;;;18.58;;
24761;SDS011;12865;51.934;10.330;2022-11-13T15:29:35;28.45;;;18.08;;
24761;SDS011;12865;51.934;10.330;2022-11-13T15:32:21;34.08;;;19.73;;
24761;SDS011;12865;51.934;10.330;2022-11-13T15:35:12;32.05;;;19.25;;
24761;SDS011;12865;51.934;10.330;2022-11-13T15:38:01;39.90;;;32.00;;
24761;SDS011;12865;51.934;10.330;2022-11-13T15:40:47;26.05;;;18.70;;
24761;SDS011;12865;51.934;10.330;2022-11-13T15:43:33;25.65;;;18.52;;
24761;SDS011;12865;51.934;10.330;2022-11-13T15:46:19;27.65;;;20.73;;
24761;SDS011;12865;51.934;10.330;2022-11-13T15:49:06;25.42;;;17.92;;
24761;SDS011;12865;51.934;10.330;2022-11-13T15:51:52;25.10;;;18.08;;
24761;SDS011;12865;51.934;10.330;2022-11-13T15:54:38;26.20;;;18.63;;
24761;SDS011;12865;51.934;10.330;2022-11-13T15:57:24;25.52;;;18.48;;
24761;SDS011;12865;51.934;10.330;2022-11-13T16:03:01;26.73;;;18.50;;
24761;SDS011;12865;51.934;10.330;2022-11-13T16:05:48;28.98;;;19.92;;
24761;SDS011;12865;51.934;10.330;2022-11-13T16:08:35;27.40;;;19.10;;
24761;SDS011;12865;51.934;10.330;2022-11-13T16:11:21;28.48;;;18.98;;
24761;SDS011;12865;51.934;10.330;2022-11-13T16:14:06;26.25;;;19.55;;
24761;SDS011;12865;51.934;10.330;2022-11-13T16:16:53;29.98;;;20.08;;
24761;SDS011;12865;51.934;10.330;2022-11-13T16:19:39;27.52;;;19.50;;
24761;SDS011;12865;51.934;10.330;2022-11-13T16:22:26;27.20;;;19.00;;
24761;SDS011;12865;51.934;10.330;2022-11-13T16:25:13;98.60;;;71.90;;
24761;SDS011;12865;51.934;10.330;2022-11-13T16:28:03;32.22;;;21.40;;
24761;SDS011;12865;51.934;10.330;2022-11-13T16:30:50;29.63;;;21.67;;
24761;SDS011;12865;51.934;10.330;2022-11-13T16:33:36;27.30;;;19.52;;
24761;SDS011;12865;51.934;10.330;2022-11-13T16:36:22;30.02;;;20.90;;
24761;SDS011;12865;51.934;10.330;2022-11-13T16:39:08;28.17;;;19.98;;
24761;SDS011;12865;51.934;10.330;2022-11-13T16:41:59;28.10;;;20.67;;
24761;SDS011;12865;51.934;10.330;2022-11-13T16:44:45;29.60;;;20.27;;
24761;SDS011;12865;51.934;10.330;2022-11-13T16:47:31;35.22;;;24.15;;
24761;SDS011;12865;51.934;10.330;2022-11-13T16:53:07;34.80;;;24.35;;
24761;SDS011;12865;51.934;10.330;2022-11-13T16:55:53;31.83;;;22.02;;
24761;SDS011;12865;51.934;10.330;2022-11-13T16:58:39;35.03;;;23.50;;
24761;SDS011;12865;51.934;10.330;2022-11-13T17:01:25;31.67;;;24.45;;
24761;SDS011;12865;51.934;10.330;2022-11-13T17:04:13;33.53;;;22.40;;
24761;SDS011;12865;51.934;10.330;2022-11-13T17:06:59;29.58;;;21.15;;
24761;SDS011;12865;51.934;10.330;2022-11-13T17:09:45;30.73;;;20.90;;
24761;SDS011;12865;51.934;10.330;2022-11-13T17:12:31;34.28;;;22.08;;
24761;SDS011;12865;51.934;10.330;2022-11-13T17:15:16;33.45;;;21.92;;
24761;SDS011;12865;51.934;10.330;2022-11-13T17:18:03;34.22;;;22.52;;
24761;SDS011;12865;51.934;10.330;2022-11-13T17:20:49;36.25;;;24.88;;
24761;SDS011;12865;51.934;10.330;2022-11-13T17:23:35;32.60;;;21.40;;
24761;SDS011;12865;51.934;10.330;2022-11-13T17:26:22;46.55;;;34.40;;
24761;SDS011;12865;51.934;10.330;2022-11-13T17:29:08;33.42;;;20.60;;
24761;SDS011;12865;51.934;10.330;2022-11-13T17:31:54;31.88;;;20.20;;
24761;SDS011;12865;51.934;10.330;2022-11-13T17:34:40;44.60;;;32.05;;
24761;SDS011;12865;51.934;10.330;2022-11-13T17:37:27;33.08;;;21.13;;
24761;SDS011;12865;51.934;10.330;2022-11-13T17:40:13;35.53;;;21.13;;
24761;SDS011;12865;51.934;10.330;2022-11-13T17:42:59;31.95;;;20.27;;
24761;SDS011;12865;51.934;10.330;2022-11-13T17:45:50;36.63;;;22.33;;
24761;SDS011;12865;51.934;10.330;2022-11-13T17:48:36;35.83;;;22.17;;
24761;SDS011;12865;51.934;10.330;2022-11-13T17:51:22;35.38;;;21.92;;
24761;SDS011;12865;51.934;10.330;2022-11-13T17:54:08;35.88;;;21.52;;
24761;SDS011;12865;51.934;10.330;2022-11-13T17:56:54;35.35;;;21.52;;
24761;SDS011;12865;51.934;10.330;2022-11-13T17:59:40;37.28;;;22.88;;
24761;SDS011;12865;51.934;10.330;2022-11-13T18:02:25;37.78;;;22.40;;
24761;SDS011;12865;51.934;10.330;2022-11-13T18:05:11;34.70;;;21.60;;
24761;SDS011;12865;51.934;10.330;2022-11-13T18:07:57;33.97;;;23.73;;
24761;SDS011;12865;51.934;10.330;2022-11-13T18:10:43;36.15;;;23.70;;
24761;SDS011;12865;51.934;10.330;2022-11-13T18:13:29;33.72;;;22.13;;
24761;SDS011;12865;51.934;10.330;2022-11-13T18:19:05;32.33;;;22.58;;
24761;SDS011;12865;51.934;10.330;2022-11-13T18:21:52;33.33;;;23.17;;